sensor_id;sensor_type;location;lat;lon;timestamp;noise_LAeq;noise_LA_min;noise_LA_max;noise_LA01;noise_LA95
66589;Laerm;53447;49.272;11.070;2024-01-25T00:00:12;41.90;35.41;57.45;;
66589;Laerm;53447;49.272;11.070;2024-01-25T00:02:37;41.65;35.62;53.53;;
66589;Laerm;53447;49.272;11.070;2024-01-25T00:05:03;43.19;36.38;63.10;;
66589;Laerm;53447;49.272;11.070;2024-01-25T00:07:28;42.19;35.62;57.29;;
66589;Laerm;53447;49.272;11.070;2024-01-25T00:09:54;42.94;34.44;61.88;;
66589;Laerm;53447;49.272;11.070;2024-01-25T00:12:19;48.98;35.41;73.94;;
66589;Laerm;53447;49.272;11.070;2024-01-25T00:14:44;42.78;36.20;63.24;;
66589;Laerm;53447;49.272;11.070;2024-01-25T00:17:09;41.60;35.62;55.57;;
66589;Laerm;53447;49.272;11.070;2024-01-25T00:19:35;41.02;36.20;53.20;;
66589;Laerm;53447;49.272;11.070;2024-01-25T00:22:00;40.86;34.70;54.87;;
66589;Laerm;53447;49.272;11.070;2024-01-25T00:24:25;40.98;35.62;43.15;;
66589;Laerm;53447;49.272;11.070;2024-01-25T00:26:51;42.14;35.19;58.83;;
66589;Laerm;53447;49.272;11.070;2024-01-25T00:29:16;59.31;36.20;86.45;;
66589;Laerm;53447;49.272;11.070;2024-01-25T00:31:41;49.96;36.02;75.94;;
66589;Laerm;53447;49.272;11.070;2024-01-25T00:34:06;41.11;35.41;54.65;;
66589;Laerm;53447;49.272;11.070;2024-01-25T00:36:32;43.43;36.02;64.14;;
66589;Laerm;53447;49.272;11.070;2024-01-25T00:38:57;40.84;36.20;51.54;;
66589;Laerm;53447;49.272;11.070;2024-01-25T00:41:23;44.06;36.20;59.54;;
66589;Laerm;53447;49.272;11.070;2024-01-25T00:43:48;42.00;36.20;54.31;;
66589;Laerm;53447;49.272;11.070;2024-01-25T00:46:14;46.11;35.41;64.19;;
66589;Laerm;53447;49.272;11.070;2024-01-25T00:48:39;41.76;33.86;62.02;;
66589;Laerm;53447;49.272;11.070;2024-01-25T00:51:08;40.93;33.86;54.61;;
66589;Laerm;53447;49.272;11.070;2024-01-25T00:53:37;41.65;34.95;56.98;;
66589;Laerm;53447;49.272;11.070;2024-01-25T00:56:03;42.20;33.54;59.22;;
66589;Laerm;53447;49.272;11.070;2024-01-25T00:58:28;44.68;35.62;66.29;;
66589;Laerm;53447;49.272;11.070;2024-01-25T01:00:54;43.74;35.19;60.86;;
66589;Laerm;53447;49.272;11.070;2024-01-25T01:03:19;42.71;35.41;59.47;;
66589;Laerm;53447;49.272;11.070;2024-01-25T01:05:45;41.82;34.95;51.82;;
66589;Laerm;53447;49.272;11.070;2024-01-25T01:08:10;40.70;34.16;53.10;;
66589;Laerm;53447;49.272;11.070;2024-01-25T01:10:36;40.65;35.41;46.38;;
66589;Laerm;53447;49.272;11.070;2024-01-25T01:13:01;40.73;36.20;48.73;;
66589;Laerm;53447;49.272;11.070;2024-01-25T01:15:26;42.36;34.95;62.65;;
66589;Laerm;53447;49.272;11.070;2024-01-25T01:17:51;43.55;36.20;61.86;;
66589;Laerm;53447;49.272;11.070;2024-01-25T01:20:16;40.97;36.20;45.23;;
66589;Laerm;53447;49.272;11.070;2024-01-25T01:22:42;40.97;34.95;56.37;;
66589;Laerm;53447;49.272;11.070;2024-01-25T01:25:07;40.55;36.02;45.63;;
66589;Laerm;53447;49.272;11.070;2024-01-25T01:27:32;41.69;35.27;55.22;;
66589;Laerm;53447;49.272;11.070;2024-01-25T01:29:57;42.04;36.87;43.54;;
66589;Laerm;53447;49.272;11.070;2024-01-25T01:32:23;43.21;35.82;59.58;;
66589;Laerm;53447;49.272;11.070;2024-01-25T01:34:48;41.16;36.20;46.38;;
66589;Laerm;53447;49.272;11.070;2024-01-25T01:37:13;43.46;33.86;64.40;;
66589;Laerm;53447;49.272;11.070;2024-01-25T01:39:38;40.71;35.19;50.78;;
66589;Laerm;53447;49.272;11.070;2024-01-25T01:42:04;40.57;35.62;46.41;;
66589;Laerm;53447;49.272;11.070;2024-01-25T01:44:29;40.58;35.19;44.44;;
66589;Laerm;53447;49.272;11.070;2024-01-25T01:46:54;40.73;36.71;42.18;;
66589;Laerm;53447;49.272;11.070;2024-01-25T01:49:20;40.43;35.41;45.98;;
66589;Laerm;53447;49.272;11.070;2024-01-25T01:51:45;40.76;36.02;45.00;;
66589;Laerm;53447;49.272;11.070;2024-01-25T01:54:10;46.55;38.08;62.78;;
66589;Laerm;53447;49.272;11.070;2024-01-25T01:56:36;41.20;35.62;51.58;;
66589;Laerm;53447;49.272;11.070;2024-01-25T01:59:02;41.01;36.55;47.01;;
66589;Laerm;53447;49.272;11.070;2024-01-25T02:01:28;41.53;36.38;57.62;;
66589;Laerm;53447;49.272;11.070;2024-01-25T02:03:53;40.97;34.16;45.70;;
66589;Laerm;53447;49.272;11.070;2024-01-25T02:06:18;42.89;35.62;48.85;;
66589;Laerm;53447;49.272;11.070;2024-01-25T02:08:44;42.53;38.83;44.78;;
66589;Laerm;53447;49.272;11.070;2024-01-25T02:11:13;42.56;39.48;47.53;;
66589;Laerm;53447;49.272;11.070;2024-01-25T02:13:38;43.16;38.53;53.14;;
66589;Laerm;53447;49.272;11.070;2024-01-25T02:16:04;42.91;40.18;44.16;;
66589;Laerm;53447;49.272;11.070;2024-01-25T02:18:29;42.85;40.91;44.01;;
66589;Laerm;53447;49.272;11.070;2024-01-25T02:20:55;42.77;39.80;48.60;;
66589;Laerm;53447;49.272;11.070;2024-01-25T02:23:20;43.14;38.63;59.15;;
66589;Laerm;53447;49.272;11.070;2024-01-25T02:25:45;42.97;37.17;51.85;;
66589;Laerm;53447;49.272;11.070;2024-01-25T02:28:10;45.30;43.61;46.84;;
66589;Laerm;53447;49.272;11.070;2024-01-25T02:30:36;42.48;33.86;53.46;;
66589;Laerm;53447;49.272;11.070;2024-01-25T02:33:01;40.69;36.20;42.27;;
66589;Laerm;53447;49.272;11.070;2024-01-25T02:35:26;40.52;34.95;46.95;;
66589;Laerm;53447;49.272;11.070;2024-01-25T02:37:51;41.82;34.95;60.70;;
66589;Laerm;53447;49.272;11.070;2024-01-25T02:40:17;41.36;36.20;49.36;;
66589;Laerm;53447;49.272;11.070;2024-01-25T02:42:42;40.75;35.82;42.22;;
66589;Laerm;53447;49.272;11.070;2024-01-25T02:45:07;40.75;34.70;42.27;;
66589;Laerm;53447;49.272;11.070;2024-01-25T02:47:33;41.90;38.20;44.30;;
66589;Laerm;53447;49.272;11.070;2024-01-25T02:49:58;42.11;37.84;54.05;;
66589;Laerm;53447;49.272;11.070;2024-01-25T02:52:23;42.82;38.73;44.01;;
66589;Laerm;53447;49.272;11.070;2024-01-25T02:54:48;42.28;37.96;49.06;;
66589;Laerm;53447;49.272;11.070;2024-01-25T02:57:14;42.39;40.18;43.73;;
66589;Laerm;53447;49.272;11.070;2024-01-25T02:59:39;42.48;40.39;44.63;;
66589;Laerm;53447;49.272;11.070;2024-01-25T03:02:04;41.92;38.18;43.86;;
66589;Laerm;53447;49.272;11.070;2024-01-25T03:04:29;48.57;37.02;70.46;;
66589;Laerm;53447;49.272;11.070;2024-01-25T03:06:55;42.43;39.64;44.98;;
66589;Laerm;53447;49.272;11.070;2024-01-25T03:09:20;42.08;38.20;43.67;;
66589;Laerm;53447;49.272;11.070;2024-01-25T03:11:48;42.02;39.88;43.23;;
66589;Laerm;53447;49.272;11.070;2024-01-25T03:14:14;41.92;39.03;43.40;;
66589;Laerm;53447;49.272;11.070;2024-01-25T03:16:39;41.27;35.82;53.82;;
66589;Laerm;53447;49.272;11.070;2024-01-25T03:19:04;40.94;36.55;42.65;;
66589;Laerm;53447;49.272;11.070;2024-01-25T03:21:29;41.62;37.45;57.51;;
66589;Laerm;53447;49.272;11.070;2024-01-25T03:23:54;40.95;36.55;42.27;;
66589;Laerm;53447;49.272;11.070;2024-01-25T03:26:20;40.80;34.95;42.27;;
66589;Laerm;53447;49.272;11.070;2024-01-25T03:28:45;41.06;35.41;50.67;;
66589;Laerm;53447;49.272;11.070;2024-01-25T03:31:10;41.14;34.44;42.97;;
66589;Laerm;53447;49.272;11.070;2024-01-25T03:33:35;42.16;33.86;61.82;;
66589;Laerm;53447;49.272;11.070;2024-01-25T03:36:04;42.17;36.38;54.37;;
66589;Laerm;53447;49.272;11.070;2024-01-25T03:38:29;41.47;35.19;49.09;;
66589;Laerm;53447;49.272;11.070;2024-01-25T03:40:54;41.84;36.20;43.47;;
66589;Laerm;53447;49.272;11.070;2024-01-25T03:43:21;42.13;37.45;43.95;;
66589;Laerm;53447;49.272;11.070;2024-01-25T03:45:48;42.47;36.87;57.42;;
66589;Laerm;53447;49.272;11.070;2024-01-25T03:48:14;41.52;37.84;45.41;;
66589;Laerm;53447;49.272;11.070;2024-01-25T03:50:39;41.12;35.82;48.68;;
66589;Laerm;53447;49.272;11.070;2024-01-25T03:53:04;48.16;34.70;66.73;;
66589;Laerm;53447;49.272;11.070;2024-01-25T03:55:31;41.06;35.62;43.37;;
66589;Laerm;53447;49.272;11.070;2024-01-25T03:57:56;41.09;36.20;53.61;;
66589;Laerm;53447;49.272;11.070;2024-01-25T04:00:21;41.56;37.17;44.01;;
66589;Laerm;53447;49.272;11.070;2024-01-25T04:02:47;44.16;36.71;65.39;;
66589;Laerm;53447;49.272;11.070;2024-01-25T04:05:13;43.34;38.08;57.25;;
66589;Laerm;53447;49.272;11.070;2024-01-25T04:07:39;41.76;36.52;47.90;;
66589;Laerm;53447;49.272;11.070;2024-01-25T04:10:04;41.52;35.41;51.72;;
66589;Laerm;53447;49.272;11.070;2024-01-25T04:12:30;42.29;38.73;49.13;;
66589;Laerm;53447;49.272;11.070;2024-01-25T04:14:56;41.82;37.96;50.15;;
66589;Laerm;53447;49.272;11.070;2024-01-25T04:17:21;42.32;34.70;52.85;;
66589;Laerm;53447;49.272;11.070;2024-01-25T04:19:46;41.62;36.87;43.86;;
66589;Laerm;53447;49.272;11.070;2024-01-25T04:22:12;41.91;36.71;43.64;;
66589;Laerm;53447;49.272;11.070;2024-01-25T04:24:37;42.28;39.48;43.48;;
66589;Laerm;53447;49.272;11.070;2024-01-25T04:27:02;42.28;40.39;43.47;;
66589;Laerm;53447;49.272;11.070;2024-01-25T04:29:27;41.50;34.70;43.30;;
66589;Laerm;53447;49.272;11.070;2024-01-25T04:31:52;41.36;38.73;42.65;;
66589;Laerm;53447;49.272;11.070;2024-01-25T04:34:18;41.28;36.02;42.65;;
66589;Laerm;53447;49.272;11.070;2024-01-25T04:36:43;41.66;36.71;46.68;;
66589;Laerm;53447;49.272;11.070;2024-01-25T04:39:08;42.06;38.31;44.36;;
66589;Laerm;53447;49.272;11.070;2024-01-25T04:41:34;43.27;38.63;54.71;;
66589;Laerm;53447;49.272;11.070;2024-01-25T04:43:59;43.04;38.93;51.57;;
66589;Laerm;53447;49.272;11.070;2024-01-25T04:46:24;45.14;37.31;69.17;;
66589;Laerm;53447;49.272;11.070;2024-01-25T04:48:49;42.25;38.42;43.83;;
66589;Laerm;53447;49.272;11.070;2024-01-25T04:51:18;42.01;37.17;43.89;;
66589;Laerm;53447;49.272;11.070;2024-01-25T04:53:43;50.22;39.48;69.59;;
66589;Laerm;53447;49.272;11.070;2024-01-25T04:56:09;45.23;38.42;63.24;;
66589;Laerm;53447;49.272;11.070;2024-01-25T04:58:34;41.77;37.31;46.63;;
66589;Laerm;53447;49.272;11.070;2024-01-25T05:01:00;50.28;38.08;68.42;;
66589;Laerm;53447;49.272;11.070;2024-01-25T05:03:25;45.25;40.53;55.36;;
66589;Laerm;53447;49.272;11.070;2024-01-25T05:05:50;52.06;40.46;71.12;;
66589;Laerm;53447;49.272;11.070;2024-01-25T05:08:15;42.52;38.20;44.07;;
66589;Laerm;53447;49.272;11.070;2024-01-25T05:10:40;42.50;40.53;43.83;;
66589;Laerm;53447;49.272;11.070;2024-01-25T05:13:06;42.39;40.53;44.85;;
66589;Laerm;53447;49.272;11.070;2024-01-25T05:15:31;42.80;39.56;48.63;;
66589;Laerm;53447;49.272;11.070;2024-01-25T05:17:57;51.97;40.66;71.23;;
66589;Laerm;53447;49.272;11.070;2024-01-25T05:20:22;43.15;39.48;56.80;;
66589;Laerm;53447;49.272;11.070;2024-01-25T05:22:47;42.36;40.11;44.70;;
66589;Laerm;53447;49.272;11.070;2024-01-25T05:25:12;51.86;40.72;69.64;;
66589;Laerm;53447;49.272;11.070;2024-01-25T05:27:38;42.91;40.32;49.29;;
66589;Laerm;53447;49.272;11.070;2024-01-25T05:30:03;42.38;40.39;43.96;;
66589;Laerm;53447;49.272;11.070;2024-01-25T05:32:29;42.07;40.03;44.93;;
66589;Laerm;53447;49.272;11.070;2024-01-25T05:34:55;51.58;37.96;70.58;;
66589;Laerm;53447;49.272;11.070;2024-01-25T05:37:20;42.21;37.71;45.43;;
66589;Laerm;53447;49.272;11.070;2024-01-25T05:39:45;41.98;39.72;44.47;;
66589;Laerm;53447;49.272;11.070;2024-01-25T05:42:11;49.48;36.20;66.61;;
66589;Laerm;53447;49.272;11.070;2024-01-25T05:44:36;42.57;40.11;46.79;;
66589;Laerm;53447;49.272;11.070;2024-01-25T05:47:01;53.00;38.42;69.85;;
66589;Laerm;53447;49.272;11.070;2024-01-25T05:49:26;42.93;39.56;49.95;;
66589;Laerm;53447;49.272;11.070;2024-01-25T05:51:51;42.34;36.87;50.47;;
66589;Laerm;53447;49.272;11.070;2024-01-25T05:54:17;48.55;37.17;65.57;;
66589;Laerm;53447;49.272;11.070;2024-01-25T05:56:42;41.77;36.20;51.29;;
66589;Laerm;53447;49.272;11.070;2024-01-25T05:59:07;42.69;36.71;52.60;;
66589;Laerm;53447;49.272;11.070;2024-01-25T06:01:33;49.82;38.31;69.09;;
66589;Laerm;53447;49.272;11.070;2024-01-25T06:03:58;55.24;37.45;70.78;;
66589;Laerm;53447;49.272;11.070;2024-01-25T06:06:23;42.59;38.53;51.43;;
66589;Laerm;53447;49.272;11.070;2024-01-25T06:08:48;42.06;39.03;46.33;;
66589;Laerm;53447;49.272;11.070;2024-01-25T06:11:13;43.93;37.02;63.02;;
66589;Laerm;53447;49.272;11.070;2024-01-25T06:13:39;46.49;39.80;60.48;;
66589;Laerm;53447;49.272;11.070;2024-01-25T06:16:04;46.81;39.80;60.89;;
66589;Laerm;53447;49.272;11.070;2024-01-25T06:18:29;57.57;38.63;75.34;;
66589;Laerm;53447;49.272;11.070;2024-01-25T06:20:54;49.94;38.53;67.25;;
66589;Laerm;53447;49.272;11.070;2024-01-25T06:23:20;42.45;39.64;60.33;;
66589;Laerm;53447;49.272;11.070;2024-01-25T06:25:45;43.05;40.03;61.39;;
66589;Laerm;53447;49.272;11.070;2024-01-25T06:28:10;42.64;39.88;47.46;;
66589;Laerm;53447;49.272;11.070;2024-01-25T06:30:35;52.23;39.96;67.64;;
66589;Laerm;53447;49.272;11.070;2024-01-25T06:33:01;51.69;38.68;68.58;;
66589;Laerm;53447;49.272;11.070;2024-01-25T06:35:26;53.72;39.48;70.32;;
66589;Laerm;53447;49.272;11.070;2024-01-25T06:37:51;44.58;40.85;59.53;;
66589;Laerm;53447;49.272;11.070;2024-01-25T06:40:16;42.44;39.80;50.25;;
66589;Laerm;53447;49.272;11.070;2024-01-25T06:42:41;42.09;36.87;53.33;;
66589;Laerm;53447;49.272;11.070;2024-01-25T06:45:07;57.52;39.48;76.00;;
66589;Laerm;53447;49.272;11.070;2024-01-25T06:47:33;53.80;38.83;70.55;;
66589;Laerm;53447;49.272;11.070;2024-01-25T06:49:58;51.84;40.18;65.52;;
66589;Laerm;53447;49.272;11.070;2024-01-25T06:52:23;52.14;40.46;65.91;;
66589;Laerm;53447;49.272;11.070;2024-01-25T06:54:48;55.48;40.59;70.96;;
66589;Laerm;53447;49.272;11.070;2024-01-25T06:57:13;47.85;39.39;63.71;;
66589;Laerm;53447;49.272;11.070;2024-01-25T06:59:39;52.65;40.32;68.10;;
66589;Laerm;53447;49.272;11.070;2024-01-25T07:02:04;53.06;41.38;67.50;;
66589;Laerm;53447;49.272;11.070;2024-01-25T07:04:30;52.80;41.32;65.13;;
66589;Laerm;53447;49.272;11.070;2024-01-25T07:06:55;51.59;41.03;67.27;;
66589;Laerm;53447;49.272;11.070;2024-01-25T07:09:20;48.46;40.80;63.39;;
66589;Laerm;53447;49.272;11.070;2024-01-25T07:11:45;49.89;40.53;65.85;;
66589;Laerm;53447;49.272;11.070;2024-01-25T07:14:11;46.34;40.66;58.91;;
66589;Laerm;53447;49.272;11.070;2024-01-25T07:16:36;45.57;40.66;63.52;;
66589;Laerm;53447;49.272;11.070;2024-01-25T07:19:02;49.23;40.03;67.10;;
66589;Laerm;53447;49.272;11.070;2024-01-25T07:21:28;54.43;40.11;69.82;;
66589;Laerm;53447;49.272;11.070;2024-01-25T07:23:53;48.87;40.59;73.31;;
66589;Laerm;53447;49.272;11.070;2024-01-25T07:26:18;45.65;41.14;62.18;;
66589;Laerm;53447;49.272;11.070;2024-01-25T07:28:44;57.86;40.72;73.27;;
66589;Laerm;53447;49.272;11.070;2024-01-25T07:31:09;51.86;40.53;64.97;;
66589;Laerm;53447;49.272;11.070;2024-01-25T07:33:35;56.07;40.79;71.04;;
66589;Laerm;53447;49.272;11.070;2024-01-25T07:36:00;48.84;40.39;64.47;;
66589;Laerm;53447;49.272;11.070;2024-01-25T07:38:25;50.16;40.46;64.46;;
66589;Laerm;53447;49.272;11.070;2024-01-25T07:40:50;48.01;40.46;61.86;;
66589;Laerm;53447;49.272;11.070;2024-01-25T07:43:17;48.37;40.72;68.89;;
66589;Laerm;53447;49.272;11.070;2024-01-25T07:45:42;52.28;40.11;69.04;;
66589;Laerm;53447;49.272;11.070;2024-01-25T07:48:07;42.05;38.20;52.91;;
66589;Laerm;53447;49.272;11.070;2024-01-25T07:50:33;42.11;40.32;43.40;;
66589;Laerm;53447;49.272;11.070;2024-01-25T07:52:58;50.11;40.11;67.42;;
66589;Laerm;53447;49.272;11.070;2024-01-25T07:55:25;54.12;39.88;70.00;;
66589;Laerm;53447;49.272;11.070;2024-01-25T07:57:51;52.28;38.53;70.90;;
66589;Laerm;53447;49.272;11.070;2024-01-25T08:00:16;44.92;40.25;58.03;;
66589;Laerm;53447;49.272;11.070;2024-01-25T08:02:41;44.66;39.21;64.33;;
66589;Laerm;53447;49.272;11.070;2024-01-25T08:05:07;54.58;40.18;72.13;;
66589;Laerm;53447;49.272;11.070;2024-01-25T08:07:33;46.67;38.42;64.77;;
66589;Laerm;53447;49.272;11.070;2024-01-25T08:09:58;43.72;37.31;64.02;;
66589;Laerm;53447;49.272;11.070;2024-01-25T08:12:26;50.26;37.96;67.85;;
66589;Laerm;53447;49.272;11.070;2024-01-25T08:14:52;50.23;36.71;66.92;;
66589;Laerm;53447;49.272;11.070;2024-01-25T08:17:17;53.47;37.17;68.28;;
66589;Laerm;53447;49.272;11.070;2024-01-25T08:19:42;44.24;38.08;66.08;;
66589;Laerm;53447;49.272;11.070;2024-01-25T08:22:08;42.63;37.45;61.30;;
66589;Laerm;53447;49.272;11.070;2024-01-25T08:24:34;51.80;37.17;70.51;;
66589;Laerm;53447;49.272;11.070;2024-01-25T08:27:00;44.67;38.42;62.07;;
66589;Laerm;53447;49.272;11.070;2024-01-25T08:29:25;44.61;37.02;64.54;;
66589;Laerm;53447;49.272;11.070;2024-01-25T08:31:50;49.86;38.20;68.74;;
66589;Laerm;53447;49.272;11.070;2024-01-25T08:34:16;45.85;38.42;62.90;;
66589;Laerm;53447;49.272;11.070;2024-01-25T08:36:41;46.32;38.08;68.12;;
66589;Laerm;53447;49.272;11.070;2024-01-25T08:39:06;48.84;39.03;69.93;;
66589;Laerm;53447;49.272;11.070;2024-01-25T08:41:33;54.59;37.84;72.31;;
66589;Laerm;53447;49.272;11.070;2024-01-25T08:43:59;52.39;37.58;71.20;;
66589;Laerm;53447;49.272;11.070;2024-01-25T08:46:24;52.69;38.08;72.22;;
66589;Laerm;53447;49.272;11.070;2024-01-25T08:48:49;50.68;36.87;68.58;;
66589;Laerm;53447;49.272;11.070;2024-01-25T08:51:15;46.08;38.08;68.27;;
66589;Laerm;53447;49.272;11.070;2024-01-25T08:53:40;44.65;38.20;56.47;;
66589;Laerm;53447;49.272;11.070;2024-01-25T08:56:05;52.75;38.31;67.87;;
66589;Laerm;53447;49.272;11.070;2024-01-25T08:58:31;47.04;38.31;69.99;;
66589;Laerm;53447;49.272;11.070;2024-01-25T09:00:56;43.63;39.72;54.08;;
66589;Laerm;53447;49.272;11.070;2024-01-25T09:03:21;43.17;39.12;58.74;;
66589;Laerm;53447;49.272;11.070;2024-01-25T09:05:47;44.39;39.72;59.32;;
66589;Laerm;53447;49.272;11.070;2024-01-25T09:08:12;44.52;39.21;64.85;;
66589;Laerm;53447;49.272;11.070;2024-01-25T09:10:38;46.04;39.21;63.78;;
66589;Laerm;53447;49.272;11.070;2024-01-25T09:13:04;44.40;39.21;61.40;;
66589;Laerm;53447;49.272;11.070;2024-01-25T09:15:29;45.25;39.48;62.45;;
66589;Laerm;53447;49.272;11.070;2024-01-25T09:17:54;50.47;38.83;68.00;;
66589;Laerm;53447;49.272;11.070;2024-01-25T09:20:19;43.94;37.96;64.16;;
66589;Laerm;53447;49.272;11.070;2024-01-25T09:22:45;44.35;38.93;59.73;;
66589;Laerm;53447;49.272;11.070;2024-01-25T09:25:10;48.29;40.25;70.02;;
66589;Laerm;53447;49.272;11.070;2024-01-25T09:27:36;48.66;40.25;71.98;;
66589;Laerm;53447;49.272;11.070;2024-01-25T09:30:02;48.57;39.56;74.37;;
66589;Laerm;53447;49.272;11.070;2024-01-25T09:32:27;46.45;38.83;65.47;;
66589;Laerm;53447;49.272;11.070;2024-01-25T09:34:52;51.90;38.63;71.93;;
66589;Laerm;53447;49.272;11.070;2024-01-25T09:37:19;54.82;36.87;72.21;;
66589;Laerm;53447;49.272;11.070;2024-01-25T09:39:47;43.32;37.96;60.08;;
66589;Laerm;53447;49.272;11.070;2024-01-25T09:42:12;46.92;37.45;73.81;;
66589;Laerm;53447;49.272;11.070;2024-01-25T09:44:37;46.99;37.58;59.90;;
66589;Laerm;53447;49.272;11.070;2024-01-25T09:47:03;45.14;37.96;62.02;;
66589;Laerm;53447;49.272;11.070;2024-01-25T09:49:28;55.00;37.58;71.03;;
66589;Laerm;53447;49.272;11.070;2024-01-25T09:51:53;52.42;39.30;69.24;;
66589;Laerm;53447;49.272;11.070;2024-01-25T09:54:20;49.64;38.83;62.46;;
66589;Laerm;53447;49.272;11.070;2024-01-25T09:56:45;51.90;39.12;76.45;;
66589;Laerm;53447;49.272;11.070;2024-01-25T09:59:12;43.61;37.58;61.18;;
66589;Laerm;53447;49.272;11.070;2024-01-25T10:01:38;42.13;36.97;55.90;;
66589;Laerm;53447;49.272;11.070;2024-01-25T10:04:06;51.08;36.87;69.27;;
66589;Laerm;53447;49.272;11.070;2024-01-25T10:06:31;46.38;36.38;61.89;;
66589;Laerm;53447;49.272;11.070;2024-01-25T10:08:56;48.04;37.84;67.93;;
66589;Laerm;53447;49.272;11.070;2024-01-25T10:11:22;53.27;37.17;72.34;;
66589;Laerm;53447;49.272;11.070;2024-01-25T10:13:48;45.66;36.71;63.60;;
66589;Laerm;53447;49.272;11.070;2024-01-25T10:16:16;45.89;37.31;61.51;;
66589;Laerm;53447;49.272;11.070;2024-01-25T10:18:42;52.81;38.93;71.89;;
66589;Laerm;53447;49.272;11.070;2024-01-25T10:21:09;45.95;38.93;64.37;;
66589;Laerm;53447;49.272;11.070;2024-01-25T10:23:34;45.79;38.31;62.97;;
66589;Laerm;53447;49.272;11.070;2024-01-25T10:26:00;56.03;39.80;76.42;;
66589;Laerm;53447;49.272;11.070;2024-01-25T10:28:25;47.43;37.96;64.91;;
66589;Laerm;53447;49.272;11.070;2024-01-25T10:30:55;51.83;37.84;68.71;;
66589;Laerm;53447;49.272;11.070;2024-01-25T10:33:20;52.19;39.03;71.92;;
66589;Laerm;53447;49.272;11.070;2024-01-25T10:35:45;53.19;36.55;71.93;;
66589;Laerm;53447;49.272;11.070;2024-01-25T10:38:15;42.77;37.45;56.32;;
66589;Laerm;53447;49.272;11.070;2024-01-25T10:40:41;67.21;37.58;96.02;;
66589;Laerm;53447;49.272;11.070;2024-01-25T10:43:07;53.86;38.53;70.04;;
66589;Laerm;53447;49.272;11.070;2024-01-25T10:45:33;55.38;40.03;79.21;;
66589;Laerm;53447;49.272;11.070;2024-01-25T10:47:59;43.76;38.20;59.51;;
66589;Laerm;53447;49.272;11.070;2024-01-25T10:50:24;51.28;37.17;71.06;;
66589;Laerm;53447;49.272;11.070;2024-01-25T10:52:50;44.15;37.45;65.82;;
66589;Laerm;53447;49.272;11.070;2024-01-25T10:55:15;53.99;36.87;72.99;;
66589;Laerm;53447;49.272;11.070;2024-01-25T10:57:45;48.15;37.58;61.75;;
66589;Laerm;53447;49.272;11.070;2024-01-25T11:00:11;46.72;37.31;72.15;;
66589;Laerm;53447;49.272;11.070;2024-01-25T11:02:37;51.54;40.46;64.88;;
66589;Laerm;53447;49.272;11.070;2024-01-25T11:05:08;51.25;37.71;65.06;;
66589;Laerm;53447;49.272;11.070;2024-01-25T11:07:46;51.91;36.71;69.63;;
66589;Laerm;53447;49.272;11.070;2024-01-25T11:10:13;48.43;35.41;65.62;;
66589;Laerm;53447;49.272;11.070;2024-01-25T11:15:44;43.88;38.73;56.65;;
66589;Laerm;53447;49.272;11.070;2024-01-25T11:18:08;45.32;37.84;56.24;;
66589;Laerm;53447;49.272;11.070;2024-01-25T11:20:34;47.40;38.83;58.94;;
66589;Laerm;53447;49.272;11.070;2024-01-25T11:23:03;45.90;37.96;61.71;;
66589;Laerm;53447;49.272;11.070;2024-01-25T11:25:32;46.65;38.08;62.61;;
66589;Laerm;53447;49.272;11.070;2024-01-25T11:27:59;51.22;38.63;68.54;;
66589;Laerm;53447;49.272;11.070;2024-01-25T11:30:28;44.07;36.87;58.71;;
66589;Laerm;53447;49.272;11.070;2024-01-25T11:32:54;43.67;36.20;55.05;;
66589;Laerm;53447;49.272;11.070;2024-01-25T11:35:19;46.82;39.56;66.69;;
66589;Laerm;53447;49.272;11.070;2024-01-25T11:37:45;43.85;37.45;58.70;;
66589;Laerm;53447;49.272;11.070;2024-01-25T11:40:11;44.62;38.63;58.02;;
66589;Laerm;53447;49.272;11.070;2024-01-25T11:42:37;52.14;39.64;71.48;;
66589;Laerm;53447;49.272;11.070;2024-01-25T11:45:04;46.55;40.32;58.71;;
66589;Laerm;53447;49.272;11.070;2024-01-25T11:47:29;47.95;40.18;60.56;;
66589;Laerm;53447;49.272;11.070;2024-01-25T11:49:55;54.24;40.18;72.97;;
66589;Laerm;53447;49.272;11.070;2024-01-25T11:52:20;54.64;40.46;71.23;;
66589;Laerm;53447;49.272;11.070;2024-01-25T11:54:45;48.76;38.42;69.36;;
66589;Laerm;53447;49.272;11.070;2024-01-25T11:57:13;46.10;36.87;60.00;;
66589;Laerm;53447;49.272;11.070;2024-01-25T11:59:39;51.59;38.08;82.09;;
66589;Laerm;53447;49.272;11.070;2024-01-25T12:02:04;46.20;38.53;64.14;;
66589;Laerm;53447;49.272;11.070;2024-01-25T12:04:29;47.96;36.38;69.73;;
66589;Laerm;53447;49.272;11.070;2024-01-25T12:06:55;45.97;36.38;70.53;;
66589;Laerm;53447;49.272;11.070;2024-01-25T12:09:20;53.79;37.71;68.70;;
66589;Laerm;53447;49.272;11.070;2024-01-25T12:11:48;51.35;36.55;71.12;;
66589;Laerm;53447;49.272;11.070;2024-01-25T12:14:14;42.77;36.55;66.32;;
66589;Laerm;53447;49.272;11.070;2024-01-25T12:16:41;44.02;36.55;59.75;;
66589;Laerm;53447;49.272;11.070;2024-01-25T12:19:06;49.15;39.21;66.26;;
66589;Laerm;53447;49.272;11.070;2024-01-25T12:21:34;47.49;37.02;69.53;;
66589;Laerm;53447;49.272;11.070;2024-01-25T12:24:01;42.15;37.10;59.81;;
66589;Laerm;53447;49.272;11.070;2024-01-25T12:26:26;41.85;34.95;60.66;;
66589;Laerm;53447;49.272;11.070;2024-01-25T12:28:51;52.69;36.55;69.04;;
66589;Laerm;53447;49.272;11.070;2024-01-25T12:31:17;53.24;39.03;72.18;;
66589;Laerm;53447;49.272;11.070;2024-01-25T12:33:42;51.32;37.45;65.38;;
66589;Laerm;53447;49.272;11.070;2024-01-25T12:36:09;53.26;36.55;72.20;;
66589;Laerm;53447;49.272;11.070;2024-01-25T12:38:34;45.18;35.41;61.13;;
66589;Laerm;53447;49.272;11.070;2024-01-25T12:41:00;47.88;37.17;64.92;;
66589;Laerm;53447;49.272;11.070;2024-01-25T12:43:25;43.13;36.02;63.03;;
66589;Laerm;53447;49.272;11.070;2024-01-25T12:45:50;42.09;35.82;56.38;;
66589;Laerm;53447;49.272;11.070;2024-01-25T12:48:16;51.55;36.20;70.91;;
66589;Laerm;53447;49.272;11.070;2024-01-25T12:50:42;51.92;37.17;68.25;;
66589;Laerm;53447;49.272;11.070;2024-01-25T12:53:07;44.69;38.07;60.49;;
66589;Laerm;53447;49.272;11.070;2024-01-25T12:55:34;55.14;37.58;87.33;;
66589;Laerm;53447;49.272;11.070;2024-01-25T12:58:00;53.48;37.31;71.41;;
66589;Laerm;53447;49.272;11.070;2024-01-25T13:00:25;44.49;36.87;54.80;;
66589;Laerm;53447;49.272;11.070;2024-01-25T13:02:51;52.23;36.02;70.27;;
66589;Laerm;53447;49.272;11.070;2024-01-25T13:05:16;54.39;37.45;70.25;;
66589;Laerm;53447;49.272;11.070;2024-01-25T13:07:41;50.46;39.30;67.93;;
66589;Laerm;53447;49.272;11.070;2024-01-25T13:10:08;45.64;38.93;57.85;;
66589;Laerm;53447;49.272;11.070;2024-01-25T13:12:33;44.95;38.42;59.12;;
66589;Laerm;53447;49.272;11.070;2024-01-25T13:14:59;51.81;39.48;71.00;;
66589;Laerm;53447;49.272;11.070;2024-01-25T13:17:24;53.92;39.56;72.13;;
66589;Laerm;53447;49.272;11.070;2024-01-25T13:19:50;48.08;38.20;66.51;;
66589;Laerm;53447;49.272;11.070;2024-01-25T13:22:16;47.27;38.53;61.33;;
66589;Laerm;53447;49.272;11.070;2024-01-25T13:24:42;42.82;38.08;58.32;;